createdAt,value
2023-01-28T00:01:56.056Z,48.23
2023-01-28T00:04:23.075Z,46.17
2023-01-28T00:06:50.092Z,46.77
2023-01-28T00:09:17.466Z,46.10
2023-01-28T00:11:44.581Z,45.13
2023-01-28T00:14:12.729Z,42.47
2023-01-28T00:16:39.872Z,45.03
2023-01-28T00:19:07.538Z,44.67
2023-01-28T00:21:35.039Z,51.30
2023-01-28T00:24:02.207Z,51.07
2023-01-28T00:26:29.251Z,44.83
2023-01-28T00:28:56.483Z,42.33
2023-01-28T00:31:27.439Z,48.40
2023-01-28T00:33:56.273Z,46.17
2023-01-28T00:36:25.852Z,47.00
2023-01-28T00:38:55.278Z,51.73
2023-01-28T00:41:24.844Z,46.57
2023-01-28T00:43:55.737Z,47.77
2023-01-28T00:46:23.747Z,44.93
2023-01-28T00:48:50.853Z,47.07
2023-01-28T00:51:20.302Z,49.30
2023-01-28T00:53:49.767Z,44.30
2023-01-28T00:56:19.539Z,48.13
2023-01-28T00:58:46.893Z,47.60
2023-01-28T01:01:20.659Z,46.80
2023-01-28T01:03:54.459Z,45.97
2023-01-28T01:06:22.786Z,50.33
2023-01-28T01:08:50.299Z,46.53
2023-01-28T01:11:19.064Z,49.90
2023-01-28T01:13:55.038Z,49.80
2023-01-28T01:16:24.447Z,51.47
2023-01-28T01:18:53.519Z,44.80
2023-01-28T01:21:23.401Z,44.10
2023-01-28T01:23:51.817Z,51.07
2023-01-28T01:26:19.143Z,49.23
2023-01-28T01:28:46.712Z,48.00
2023-01-28T01:31:17.367Z,46.00
2023-01-28T01:33:46.759Z,48.20
2023-01-28T01:36:16.858Z,47.93
2023-01-28T01:38:45.044Z,50.77
2023-01-28T01:41:32.190Z,48.23
2023-01-28T01:44:02.078Z,47.87
2023-01-28T01:46:41.681Z,43.80
2023-01-28T01:49:18.068Z,53.10
2023-01-28T01:51:49.153Z,49.07
2023-01-28T01:54:18.248Z,46.53
2023-01-28T01:56:48.923Z,44.67
2023-01-28T01:59:20.379Z,46.80
2023-01-28T02:01:48.561Z,46.03
2023-01-28T02:04:22.503Z,47.63
2023-01-28T02:06:49.688Z,48.67
2023-01-28T02:09:27.417Z,47.93
2023-01-28T02:11:59.053Z,49.40
2023-01-28T02:14:32.015Z,48.03
2023-01-28T02:17:02.046Z,52.20
2023-01-28T02:19:40.432Z,49.17
2023-01-28T02:22:28.678Z,48.40
2023-01-28T02:25:12.825Z,52.07
2023-01-28T02:28:17.688Z,49.67
2023-01-28T02:31:06.121Z,50.17
2023-01-28T02:33:41.210Z,46.70
2023-01-28T02:36:17.107Z,48.97
2023-01-28T02:38:51.096Z,44.70
2023-01-28T02:41:30.112Z,45.53
2023-01-28T02:43:57.219Z,47.13
2023-01-28T02:46:45.858Z,49.50
2023-01-28T02:49:25.921Z,46.90
2023-01-28T02:52:01.922Z,47.10
2023-01-28T02:54:49.966Z,46.23
2023-01-28T02:57:26.377Z,45.40
2023-01-28T03:00:12.229Z,45.00
2023-01-28T03:03:00.403Z,43.83
2023-01-28T03:05:35.793Z,44.90
2023-01-28T03:08:25.842Z,49.63
2023-01-28T03:11:13.959Z,48.87
2023-01-28T03:14:01.080Z,45.43
2023-01-28T03:16:51.345Z,48.10
2023-01-28T03:19:37.644Z,50.27
2023-01-28T03:22:23.807Z,44.27
2023-01-28T03:25:12.066Z,46.90
2023-01-28T03:28:10.081Z,46.50
2023-01-28T03:31:04.859Z,50.03
2023-01-28T03:34:01.580Z,45.77
2023-01-28T03:36:47.578Z,45.63
2023-01-28T03:39:31.963Z,42.77
2023-01-28T03:42:11.497Z,41.07
2023-01-28T03:45:01.781Z,47.67
2023-01-28T03:47:30.998Z,50.93
2023-01-28T03:50:02.331Z,46.33
2023-01-28T03:52:35.394Z,50.37
2023-01-28T03:55:21.023Z,45.57
2023-01-28T03:57:48.379Z,42.60
2023-01-28T04:00:18.268Z,49.07
2023-01-28T04:02:46.331Z,46.00
2023-01-28T04:05:19.901Z,42.30
2023-01-28T04:07:51.898Z,45.23
2023-01-28T04:10:26.819Z,48.57
2023-01-28T04:13:18.388Z,47.70
2023-01-28T04:15:46.571Z,42.87
2023-01-28T04:18:15.446Z,47.07
2023-01-28T04:20:43.135Z,46.30
2023-01-28T04:23:10.275Z,45.10
2023-01-28T04:25:37.406Z,40.57
2023-01-28T04:28:08.242Z,42.07
2023-01-28T04:30:35.519Z,45.67
2023-01-28T04:33:11.638Z,42.97
2023-01-28T04:35:57.396Z,48.30
2023-01-28T04:38:46.431Z,47.10
2023-01-28T04:41:42.820Z,46.37
2023-01-28T04:44:25.837Z,44.20
2023-01-28T04:46:58.660Z,44.47
2023-01-28T04:49:36.971Z,42.67
2023-01-28T04:52:20.660Z,41.90
2023-01-28T04:55:07.062Z,40.00
2023-01-28T04:57:35.065Z,44.77
2023-01-28T05:00:02.380Z,40.33
2023-01-28T05:02:29.691Z,38.13
2023-01-28T05:04:56.820Z,45.07
2023-01-28T05:07:38.668Z,37.90
2023-01-28T05:10:07.133Z,35.37
2023-01-28T05:12:34.761Z,36.23
2023-01-28T05:15:05.927Z,43.43
2023-01-28T05:17:33.202Z,37.13
2023-01-28T05:20:00.533Z,39.53
2023-01-28T05:22:29.346Z,42.20
2023-01-28T05:25:31.844Z,39.87
2023-01-28T05:27:59.111Z,44.73
2023-01-28T05:30:26.291Z,46.53
2023-01-28T05:32:57.250Z,46.10
2023-01-28T05:35:25.893Z,42.87
2023-01-28T05:37:52.898Z,38.70
2023-01-28T05:40:20.420Z,40.90
2023-01-28T05:42:47.881Z,40.77
2023-01-28T05:45:41.339Z,38.80
2023-01-28T05:48:15.190Z,39.83
2023-01-28T05:51:08.334Z,40.20
2023-01-28T05:53:37.948Z,38.70
2023-01-28T05:56:06.589Z,40.33
2023-01-28T05:58:37.574Z,38.60
2023-01-28T06:01:05.183Z,44.80
2023-01-28T06:03:40.903Z,39.40
2023-01-28T06:06:08.244Z,39.30
2023-01-28T06:08:37.360Z,39.77
2023-01-28T06:11:05.047Z,36.57
2023-01-28T06:13:35.933Z,37.43
2023-01-28T06:16:21.718Z,38.90
2023-01-28T06:19:00.311Z,40.17
2023-01-28T06:21:30.043Z,40.53
2023-01-28T06:23:58.843Z,39.33
2023-01-28T06:26:25.945Z,37.33
2023-01-28T06:28:53.218Z,37.27
2023-01-28T06:31:20.278Z,36.30
2023-01-28T06:33:47.454Z,35.57
2023-01-28T06:36:14.450Z,33.53
2023-01-28T06:38:41.550Z,33.30
2023-01-28T06:41:08.649Z,31.57
2023-01-28T06:43:36.117Z,35.20
2023-01-28T06:46:03.228Z,33.63
2023-01-28T06:48:30.818Z,32.50
2023-01-28T06:50:57.846Z,31.37
2023-01-28T06:53:24.997Z,31.90
2023-01-28T06:55:52.264Z,31.63
2023-01-28T06:58:19.621Z,29.50
2023-01-28T07:00:46.811Z,34.83
2023-01-28T07:03:14.191Z,30.27
2023-01-28T07:05:41.219Z,29.70
2023-01-28T07:08:08.319Z,28.13
2023-01-28T07:10:35.543Z,31.83
2023-01-28T07:13:03.570Z,27.17
2023-01-28T07:15:30.591Z,28.07
2023-01-28T07:17:58.034Z,31.20
2023-01-28T07:20:26.419Z,31.83
2023-01-28T07:22:53.621Z,34.03
2023-01-28T07:25:21.214Z,30.53
2023-01-28T07:27:53.341Z,28.63
2023-01-28T07:30:21.949Z,29.47
2023-01-28T07:32:56.888Z,33.10
2023-01-28T07:35:24.919Z,29.63
2023-01-28T07:37:56.984Z,33.93
2023-01-28T07:40:25.794Z,36.33
2023-01-28T07:42:55.370Z,35.20
2023-01-28T07:45:24.452Z,35.20
2023-01-28T07:47:59.537Z,32.13
2023-01-28T07:50:29.164Z,28.87
2023-01-28T07:52:57.307Z,31.23
2023-01-28T07:55:25.612Z,31.70
2023-01-28T07:57:59.198Z,29.77
2023-01-28T08:00:28.338Z,36.07
2023-01-28T08:03:00.297Z,32.70
2023-01-28T08:05:41.600Z,30.70
2023-01-28T08:08:10.136Z,37.13
2023-01-28T08:10:38.181Z,31.33
2023-01-28T08:13:06.346Z,25.73
2023-01-28T08:15:35.369Z,31.70
2023-01-28T08:18:03.849Z,30.60
2023-01-28T08:20:31.037Z,33.53
2023-01-28T08:23:19.117Z,32.47
2023-01-28T08:25:47.400Z,34.17
2023-01-28T08:28:16.236Z,32.50
2023-01-28T08:30:43.640Z,31.50
2023-01-28T08:33:12.631Z,33.93
2023-01-28T08:35:40.351Z,29.87
2023-01-28T08:38:08.947Z,29.93
2023-01-28T08:40:39.138Z,24.33
2023-01-28T08:43:07.661Z,28.93
2023-01-28T08:45:34.704Z,29.40
2023-01-28T08:48:06.926Z,28.30
2023-01-28T08:50:38.000Z,27.90
2023-01-28T08:53:08.257Z,27.37
2023-01-28T08:55:35.901Z,27.27
2023-01-28T08:58:05.071Z,26.13
2023-01-28T09:00:32.830Z,21.87
2023-01-28T09:03:00.308Z,23.37
2023-01-28T09:05:27.595Z,25.10
2023-01-28T09:07:54.709Z,23.70
2023-01-28T09:10:22.134Z,31.63
2023-01-28T09:12:49.547Z,24.00
2023-01-28T09:15:17.993Z,26.23
2023-01-28T09:17:46.046Z,23.60
2023-01-28T09:20:13.914Z,24.43
2023-01-28T09:22:41.477Z,26.77
2023-01-28T09:25:09.199Z,25.03
2023-01-28T09:27:36.235Z,24.53
2023-01-28T09:30:03.750Z,23.97
2023-01-28T09:32:31.411Z,24.00
2023-01-28T09:34:59.058Z,24.03
2023-01-28T09:37:26.058Z,26.67
2023-01-28T09:39:53.213Z,23.53
2023-01-28T09:42:41.162Z,25.10
2023-01-28T09:45:41.812Z,25.47
2023-01-28T09:48:21.946Z,24.93
2023-01-28T09:50:55.027Z,25.83
2023-01-28T09:53:24.351Z,26.00
2023-01-28T09:55:57.222Z,27.10
2023-01-28T09:58:24.330Z,26.13
2023-01-28T10:01:10.340Z,28.90
2023-01-28T10:03:46.265Z,27.67
2023-01-28T10:06:53.886Z,23.40
2023-01-28T10:09:34.748Z,22.57
2023-01-28T10:12:39.794Z,25.57
2023-01-28T10:15:07.199Z,23.07
2023-01-28T10:17:44.350Z,24.40
2023-01-28T10:20:21.161Z,25.00
2023-01-28T10:23:07.402Z,22.93
2023-01-28T10:25:35.925Z,21.07
2023-01-28T10:28:03.239Z,22.77
2023-01-28T10:30:38.740Z,23.37
2023-01-28T10:33:17.949Z,22.00
2023-01-28T10:35:45.403Z,26.47
2023-01-28T10:38:20.336Z,23.60
2023-01-28T10:40:50.631Z,22.47
2023-01-28T10:43:24.665Z,21.20
2023-01-28T10:46:15.877Z,23.13
2023-01-28T10:48:58.592Z,23.37
2023-01-28T10:51:37.208Z,27.33
2023-01-28T10:54:25.163Z,21.50
2023-01-28T10:56:59.249Z,23.57
2023-01-28T10:59:28.223Z,24.07
2023-01-28T11:02:04.581Z,23.53
2023-01-28T11:04:33.065Z,28.03
2023-01-28T11:07:04.708Z,23.47
2023-01-28T11:09:33.404Z,21.63
2023-01-28T11:12:20.416Z,23.90
2023-01-28T11:14:52.538Z,25.80
2023-01-28T11:17:24.731Z,24.03
2023-01-28T11:20:01.793Z,23.90
2023-01-28T11:22:38.906Z,25.57
2023-01-28T11:25:36.221Z,22.90
2023-01-28T11:28:17.495Z,23.80
2023-01-28T11:30:50.770Z,29.17
2023-01-28T11:33:39.546Z,28.37
2023-01-28T11:36:26.076Z,29.77
2023-01-28T11:38:55.376Z,27.10
2023-01-28T11:41:35.169Z,29.83
2023-01-28T11:44:20.789Z,26.20
2023-01-28T11:47:14.304Z,28.37
2023-01-28T11:50:05.462Z,26.10
2023-01-28T11:53:04.807Z,27.97
2023-01-28T11:55:51.792Z,28.70
2023-01-28T11:58:36.449Z,23.73
2023-01-28T12:01:56.950Z,30.80
2023-01-28T12:05:01.354Z,26.67
2023-01-28T12:07:40.418Z,26.07
2023-01-28T12:10:13.868Z,28.23
2023-01-28T12:12:44.302Z,28.30
2023-01-28T12:15:45.152Z,31.67
2023-01-28T12:18:33.163Z,26.20
2023-01-28T12:21:10.927Z,26.30
2023-01-28T12:23:47.038Z,28.20
2023-01-28T12:26:27.019Z,28.77
2023-01-28T12:29:28.914Z,28.93
2023-01-28T12:32:17.759Z,30.90
2023-01-28T12:34:53.738Z,28.70
2023-01-28T12:38:10.617Z,29.80
2023-01-28T12:40:56.890Z,30.03
2023-01-28T12:43:37.655Z,29.07
2023-01-28T12:46:18.889Z,33.50
2023-01-28T12:48:54.012Z,30.27
2023-01-28T12:51:41.288Z,31.17
2023-01-28T12:54:40.892Z,38.47
2023-01-28T12:57:13.882Z,29.33
2023-01-28T12:59:50.530Z,32.10
2023-01-28T13:02:26.618Z,32.37
2023-01-28T13:05:02.384Z,32.33
2023-01-28T13:07:37.404Z,32.70
2023-01-28T13:10:16.459Z,33.40
2023-01-28T13:12:44.716Z,33.27
2023-01-28T13:15:15.539Z,29.60
2023-01-28T13:17:58.413Z,29.03
2023-01-28T13:20:48.306Z,30.37
2023-01-28T13:23:41.890Z,32.43
2023-01-28T13:26:24.433Z,30.27
2023-01-28T13:28:53.528Z,28.97
2023-01-28T13:31:23.906Z,31.53
2023-01-28T13:33:54.150Z,29.30
2023-01-28T13:36:44.188Z,28.70
2023-01-28T13:39:14.416Z,28.30
2023-01-28T13:41:46.953Z,29.00
2023-01-28T13:44:29.850Z,29.37
2023-01-28T13:47:00.586Z,29.40
2023-01-28T13:49:54.384Z,28.70
2023-01-28T13:52:32.567Z,26.67
2023-01-28T13:55:06.869Z,33.40
2023-01-28T13:57:43.061Z,28.30
2023-01-28T14:00:37.800Z,29.43
2023-01-28T14:03:29.177Z,30.27
2023-01-28T14:06:30.590Z,29.07
2023-01-28T14:09:05.919Z,28.20
2023-01-28T14:11:54.391Z,30.77
2023-01-28T14:14:26.959Z,29.37
2023-01-28T14:17:14.244Z,32.67
2023-01-28T14:19:42.121Z,25.63
2023-01-28T14:22:10.747Z,27.60
2023-01-28T14:24:39.689Z,29.10
2023-01-28T14:27:11.623Z,27.97
2023-01-28T14:30:18.560Z,27.90
2023-01-28T14:32:51.587Z,24.27
2023-01-28T14:35:29.482Z,30.03
2023-01-28T14:37:58.120Z,28.53
2023-01-28T14:40:25.766Z,30.33
2023-01-28T14:42:55.400Z,26.93
2023-01-28T14:45:31.204Z,28.03
2023-01-28T14:48:09.819Z,29.60
2023-01-28T14:51:05.593Z,30.03
2023-01-28T14:54:06.054Z,32.90
2023-01-28T14:56:56.913Z,28.13
2023-01-28T14:59:29.774Z,26.40
2023-01-28T15:01:59.543Z,34.03
2023-01-28T15:04:30.564Z,29.43
2023-01-28T15:07:15.035Z,30.57
2023-01-28T15:09:42.213Z,29.07
2023-01-28T15:12:10.193Z,31.37
2023-01-28T15:14:37.373Z,31.13
2023-01-28T15:17:04.929Z,34.07
2023-01-28T15:19:35.453Z,45.50
2023-01-28T15:22:06.623Z,41.60
2023-01-28T15:24:37.411Z,40.07
2023-01-28T15:27:04.563Z,40.23
2023-01-28T15:29:35.343Z,37.97
2023-01-28T15:32:04.125Z,47.23
2023-01-28T15:34:32.191Z,51.50
2023-01-28T15:37:02.451Z,54.40
2023-01-28T15:39:30.251Z,52.63
2023-01-28T15:41:58.891Z,58.23
2023-01-28T15:44:29.383Z,52.87
2023-01-28T15:47:01.180Z,56.13
2023-01-28T15:49:34.008Z,60.17
2023-01-28T15:52:01.728Z,59.97
2023-01-28T15:54:30.531Z,56.33
2023-01-28T15:57:08.178Z,56.87
2023-01-28T15:59:35.235Z,54.90
2023-01-28T16:02:18.674Z,60.43
2023-01-28T16:04:57.808Z,67.70
2023-01-28T16:07:27.402Z,64.23
2023-01-28T16:09:56.850Z,62.70
2023-01-28T16:12:26.845Z,65.33
2023-01-28T16:15:02.726Z,67.90
2023-01-28T16:17:37.644Z,62.73
2023-01-28T16:20:08.095Z,62.13
2023-01-28T16:22:35.096Z,62.13
2023-01-28T16:25:03.831Z,64.47
2023-01-28T16:27:31.464Z,68.33
2023-01-28T16:29:58.670Z,63.67
2023-01-28T16:32:28.824Z,64.93
2023-01-28T16:34:56.164Z,61.87
2023-01-28T16:37:23.359Z,64.77
2023-01-28T16:39:50.468Z,63.00
2023-01-28T16:42:17.789Z,66.87
2023-01-28T16:44:45.284Z,63.60
2023-01-28T16:47:12.421Z,72.83
2023-01-28T16:49:40.056Z,65.23
2023-01-28T16:52:07.381Z,64.83
2023-01-28T16:54:35.082Z,66.23
2023-01-28T16:57:02.329Z,66.60
2023-01-28T16:59:29.429Z,67.10
2023-01-28T17:01:56.668Z,68.23
2023-01-28T17:04:23.774Z,66.63
2023-01-28T17:06:52.644Z,68.23
2023-01-28T17:09:20.433Z,61.93
2023-01-28T17:11:47.872Z,66.33
2023-01-28T17:14:14.808Z,66.77
2023-01-28T17:16:41.965Z,62.67
2023-01-28T17:19:08.987Z,65.23
2023-01-28T17:21:36.132Z,67.20
2023-01-28T17:24:03.629Z,66.70
2023-01-28T17:26:30.813Z,69.37
2023-01-28T17:28:57.859Z,72.93
2023-01-28T17:31:26.689Z,71.90
2023-01-28T17:33:55.625Z,68.13
2023-01-28T17:36:24.008Z,65.50
2023-01-28T17:38:51.639Z,71.73
2023-01-28T17:41:18.834Z,73.43
2023-01-28T17:43:53.384Z,69.93
2023-01-28T17:46:21.999Z,73.33
2023-01-28T17:48:49.027Z,75.37
2023-01-28T17:51:19.343Z,75.43
2023-01-28T17:53:47.938Z,72.10
2023-01-28T17:56:20.268Z,72.03
2023-01-28T17:58:55.185Z,82.67
2023-01-28T18:01:23.924Z,75.37
2023-01-28T18:03:51.169Z,74.30
2023-01-28T18:06:18.641Z,82.03
2023-01-28T18:08:46.056Z,74.53
2023-01-28T18:11:15.589Z,79.37
2023-01-28T18:13:43.152Z,76.33
2023-01-28T18:16:15.354Z,75.93
2023-01-28T18:18:43.153Z,84.30
2023-01-28T18:21:51.227Z,81.93
2023-01-28T18:24:20.371Z,76.80
2023-01-28T18:26:47.912Z,77.43
2023-01-28T18:29:19.075Z,78.50
2023-01-28T18:31:48.258Z,78.43
2023-01-28T18:34:16.199Z,84.90
2023-01-28T18:36:43.521Z,92.00
2023-01-28T18:39:12.887Z,77.90
2023-01-28T18:41:40.197Z,85.13
2023-01-28T18:44:09.248Z,84.50
2023-01-28T18:46:36.340Z,82.17
2023-01-28T18:49:03.807Z,85.57
2023-01-28T18:51:31.885Z,80.17
2023-01-28T18:54:00.702Z,82.73
2023-01-28T18:56:29.623Z,84.03
2023-01-28T18:59:02.002Z,85.67
2023-01-28T19:01:29.696Z,83.83
2023-01-28T19:03:58.154Z,86.53
2023-01-28T19:06:27.381Z,81.90
2023-01-28T19:08:56.293Z,86.93
2023-01-28T19:11:25.506Z,91.60
2023-01-28T19:13:53.103Z,87.90
2023-01-28T19:16:21.847Z,85.20
2023-01-28T19:18:57.594Z,91.10
2023-01-28T19:21:25.839Z,86.30
2023-01-28T19:24:00.701Z,83.23
2023-01-28T19:26:30.031Z,96.53
2023-01-28T19:28:57.535Z,95.07
2023-01-28T19:31:25.872Z,91.53
2023-01-28T19:33:58.333Z,101.53
2023-01-28T19:36:28.014Z,101.50
2023-01-28T19:39:00.116Z,112.63
2023-01-28T19:41:28.845Z,113.17
2023-01-28T19:43:56.814Z,110.43
2023-01-28T19:46:24.206Z,112.03
2023-01-28T19:48:51.393Z,118.83
2023-01-28T19:51:19.857Z,113.37
2023-01-28T19:53:50.596Z,116.10
2023-01-28T19:56:18.876Z,111.30
2023-01-28T19:58:46.952Z,116.03
2023-01-28T20:01:16.727Z,113.83
2023-01-28T20:03:45.739Z,122.07
2023-01-28T20:06:15.694Z,120.03
2023-01-28T20:08:43.802Z,111.43
2023-01-28T20:11:13.786Z,117.23
2023-01-28T20:13:43.034Z,115.30
2023-01-28T20:16:21.520Z,112.53
2023-01-28T20:18:53.626Z,125.47
2023-01-28T20:21:21.796Z,125.80
2023-01-28T20:23:50.442Z,110.17
2023-01-28T20:26:18.926Z,116.83
2023-01-28T20:28:46.059Z,118.03
2023-01-28T20:31:13.711Z,123.07
2023-01-28T20:33:40.881Z,118.00
2023-01-28T20:36:10.990Z,124.93
2023-01-28T20:38:48.501Z,121.27
2023-01-28T20:41:21.698Z,112.53
2023-01-28T20:43:50.610Z,117.00
2023-01-28T20:46:19.401Z,121.90
2023-01-28T20:48:47.517Z,113.53
2023-01-28T20:51:17.434Z,114.13
2023-01-28T20:53:45.381Z,118.60
2023-01-28T20:56:14.464Z,111.80
2023-01-28T20:58:42.155Z,114.53
2023-01-28T21:01:19.361Z,110.60
2023-01-28T21:03:47.604Z,104.10
2023-01-28T21:06:15.161Z,92.90
2023-01-28T21:08:43.557Z,91.23
2023-01-28T21:11:12.990Z,93.60
2023-01-28T21:13:40.555Z,99.63
2023-01-28T21:16:08.359Z,101.63
2023-01-28T21:18:35.684Z,101.40
2023-01-28T21:21:11.123Z,99.50
2023-01-28T21:23:38.159Z,103.93
2023-01-28T21:26:05.991Z,97.63
2023-01-28T21:28:33.311Z,91.07
2023-01-28T21:31:23.494Z,87.77
2023-01-28T21:33:52.259Z,84.30
2023-01-28T21:36:19.619Z,82.17
2023-01-28T21:38:52.017Z,78.23
2023-01-28T21:41:19.472Z,84.83
2023-01-28T21:43:53.809Z,77.67
2023-01-28T21:46:22.667Z,78.73
2023-01-28T21:48:49.786Z,80.07
2023-01-28T21:51:35.702Z,82.57
2023-01-28T21:54:04.603Z,77.87
2023-01-28T21:56:34.844Z,79.90
2023-01-28T21:59:20.504Z,73.53
2023-01-28T22:01:47.911Z,73.07
2023-01-28T22:04:15.364Z,76.77
2023-01-28T22:06:43.094Z,73.83
2023-01-28T22:09:14.196Z,79.07
2023-01-28T22:11:43.326Z,77.63
2023-01-28T22:14:10.931Z,73.10
2023-01-28T22:16:38.603Z,74.70
2023-01-28T22:19:05.642Z,74.57
2023-01-28T22:21:33.019Z,78.30
2023-01-28T22:24:00.518Z,77.87
2023-01-28T22:26:27.662Z,68.00
2023-01-28T22:28:54.720Z,67.40
2023-01-28T22:31:21.991Z,62.43
2023-01-28T22:33:49.154Z,64.50
2023-01-28T22:36:16.626Z,65.40
2023-01-28T22:38:45.603Z,66.80
2023-01-28T22:41:19.303Z,65.50
2023-01-28T22:43:47.274Z,67.07
2023-01-28T22:46:15.632Z,68.57
2023-01-28T22:48:42.842Z,75.03
2023-01-28T22:51:27.340Z,70.80
2023-01-28T22:53:54.516Z,68.43
2023-01-28T22:56:24.232Z,66.27
2023-01-28T22:58:59.125Z,60.40
2023-01-28T23:01:27.187Z,59.13
2023-01-28T23:03:56.291Z,52.43
2023-01-28T23:06:25.236Z,54.63
2023-01-28T23:08:52.820Z,54.73
2023-01-28T23:11:27.313Z,53.17
2023-01-28T23:14:19.488Z,54.53
2023-01-28T23:17:05.702Z,57.63
2023-01-28T23:19:52.391Z,54.23
2023-01-28T23:22:48.217Z,61.47
2023-01-28T23:25:15.964Z,54.87
2023-01-28T23:27:43.816Z,54.37
2023-01-28T23:30:12.384Z,52.70
2023-01-28T23:32:42.410Z,53.27
2023-01-28T23:35:10.699Z,49.73
2023-01-28T23:37:37.991Z,48.53
2023-01-28T23:40:06.830Z,47.27
2023-01-28T23:42:33.972Z,43.63
2023-01-28T23:45:01.142Z,39.03
2023-01-28T23:47:28.278Z,38.87
2023-01-28T23:49:55.438Z,37.40
2023-01-28T23:52:23.523Z,34.70
2023-01-28T23:54:50.873Z,36.63
2023-01-28T23:57:17.849Z,34.43
2023-01-28T23:59:44.956Z,31.07
